sensor_id;sensor_type;location;lat;lon;timestamp;temperature;humidity
19003;DHT22;9634;51.040;13.794;2022-09-30T14:52:41;21.40;23.20
19003;DHT22;9634;51.040;13.794;2022-09-30T14:57:43;21.00;23.90
19003;DHT22;9634;51.040;13.794;2022-09-30T15:02:46;20.50;24.90
19003;DHT22;9634;51.040;13.794;2022-09-30T15:07:50;20.30;25.70
19003;DHT22;9634;51.040;13.794;2022-09-30T15:12:53;20.30;27.20
19003;DHT22;9634;51.040;13.794;2022-09-30T15:17:56;20.00;27.90
19003;DHT22;9634;51.040;13.794;2022-09-30T15:28:03;19.30;28.30
19003;DHT22;9634;51.040;13.794;2022-09-30T15:33:14;19.00;30.30
19003;DHT22;9634;51.040;13.794;2022-09-30T15:38:22;18.60;32.10
19003;DHT22;9634;51.040;13.794;2022-09-30T15:43:31;18.60;34.00
19003;DHT22;9634;51.040;13.794;2022-09-30T15:48:35;18.80;40.40
19003;DHT22;9634;51.040;13.794;2022-09-30T15:53:46;19.00;35.00
19003;DHT22;9634;51.040;13.794;2022-09-30T15:58:56;21.20;30.20
19003;DHT22;9634;51.040;13.794;2022-09-30T16:04:00;20.80;28.10
19003;DHT22;9634;51.040;13.794;2022-09-30T16:09:06;19.80;29.80
19003;DHT22;9634;51.040;13.794;2022-09-30T16:14:16;19.10;32.50
19003;DHT22;9634;51.040;13.794;2022-09-30T16:19:19;18.60;34.30
19003;DHT22;9634;51.040;13.794;2022-09-30T16:24:45;18.40;35.50
19003;DHT22;9634;51.040;13.794;2022-09-30T16:29:48;17.70;37.30
19003;DHT22;9634;51.040;13.794;2022-09-30T16:34:50;17.10;42.30
19003;DHT22;9634;51.040;13.794;2022-09-30T16:39:54;16.60;47.20
19003;DHT22;9634;51.040;13.794;2022-09-30T16:44:57;16.00;1.00
19003;DHT22;9634;51.040;13.794;2022-09-30T16:50:00;15.60;1.00
19003;DHT22;9634;51.040;13.794;2022-09-30T16:55:05;15.00;99.90
19003;DHT22;9634;51.040;13.794;2022-09-30T17:00:12;14.60;1.00
19003;DHT22;9634;51.040;13.794;2022-09-30T17:05:17;14.20;1.00
19003;DHT22;9634;51.040;13.794;2022-09-30T17:10:23;13.80;1.00
19003;DHT22;9634;51.040;13.794;2022-09-30T17:15:27;13.50;1.00
19003;DHT22;9634;51.040;13.794;2022-09-30T17:20:29;13.40;1.00
19003;DHT22;9634;51.040;13.794;2022-09-30T17:25:33;13.40;99.90
19003;DHT22;9634;51.040;13.794;2022-09-30T17:30:36;13.40;1.00
19003;DHT22;9634;51.040;13.794;2022-09-30T17:35:39;13.20;1.00
19003;DHT22;9634;51.040;13.794;2022-09-30T17:40:42;12.90;99.90
19003;DHT22;9634;51.040;13.794;2022-09-30T17:46:02;12.70;99.90
19003;DHT22;9634;51.040;13.794;2022-09-30T17:51:05;12.60;99.90
19003;DHT22;9634;51.040;13.794;2022-09-30T17:56:14;12.40;1.00
19003;DHT22;9634;51.040;13.794;2022-09-30T18:01:20;12.30;1.00
19003;DHT22;9634;51.040;13.794;2022-09-30T18:06:22;12.30;1.00
19003;DHT22;9634;51.040;13.794;2022-09-30T18:11:26;12.50;1.00
19003;DHT22;9634;51.040;13.794;2022-09-30T18:16:31;12.80;1.00
19003;DHT22;9634;51.040;13.794;2022-09-30T18:21:36;12.80;1.00
19003;DHT22;9634;51.040;13.794;2022-09-30T18:26:39;12.80;99.90
19003;DHT22;9634;51.040;13.794;2022-09-30T18:31:42;12.80;99.90
19003;DHT22;9634;51.040;13.794;2022-09-30T18:36:44;12.80;99.90
19003;DHT22;9634;51.040;13.794;2022-09-30T18:41:48;12.70;99.90
19003;DHT22;9634;51.040;13.794;2022-09-30T18:46:50;12.50;99.90
19003;DHT22;9634;51.040;13.794;2022-09-30T18:51:55;12.40;99.90
19003;DHT22;9634;51.040;13.794;2022-09-30T18:56:59;12.20;99.90
19003;DHT22;9634;51.040;13.794;2022-09-30T19:02:01;12.00;99.90
19003;DHT22;9634;51.040;13.794;2022-09-30T19:07:03;11.90;99.90
19003;DHT22;9634;51.040;13.794;2022-09-30T19:12:07;11.60;99.90
19003;DHT22;9634;51.040;13.794;2022-09-30T19:17:09;11.60;99.90
19003;DHT22;9634;51.040;13.794;2022-09-30T19:22:12;11.50;99.90
19003;DHT22;9634;51.040;13.794;2022-09-30T19:27:15;11.30;99.90
19003;DHT22;9634;51.040;13.794;2022-09-30T19:32:18;11.10;99.90
19003;DHT22;9634;51.040;13.794;2022-09-30T19:37:20;11.00;99.90
19003;DHT22;9634;51.040;13.794;2022-09-30T19:42:24;10.80;99.90
19003;DHT22;9634;51.040;13.794;2022-09-30T19:47:27;10.60;99.90
19003;DHT22;9634;51.040;13.794;2022-09-30T19:52:30;10.40;99.90
19003;DHT22;9634;51.040;13.794;2022-09-30T19:57:33;10.10;99.90
19003;DHT22;9634;51.040;13.794;2022-09-30T20:02:36;10.40;99.90
19003;DHT22;9634;51.040;13.794;2022-09-30T20:07:38;10.30;99.90
19003;DHT22;9634;51.040;13.794;2022-09-30T20:12:41;10.20;99.90
19003;DHT22;9634;51.040;13.794;2022-09-30T20:17:44;10.10;99.90
19003;DHT22;9634;51.040;13.794;2022-09-30T20:22:46;10.00;99.90
19003;DHT22;9634;51.040;13.794;2022-09-30T20:27:49;10.00;99.90
19003;DHT22;9634;51.040;13.794;2022-09-30T20:32:52;9.90;99.90
19003;DHT22;9634;51.040;13.794;2022-09-30T20:37:54;9.90;99.90
19003;DHT22;9634;51.040;13.794;2022-09-30T20:42:58;9.80;99.90
19003;DHT22;9634;51.040;13.794;2022-09-30T20:48:01;9.50;99.90
19003;DHT22;9634;51.040;13.794;2022-09-30T20:53:06;9.40;99.90
19003;DHT22;9634;51.040;13.794;2022-09-30T20:58:11;9.20;99.90
19003;DHT22;9634;51.040;13.794;2022-09-30T21:03:13;9.10;99.90
19003;DHT22;9634;51.040;13.794;2022-09-30T21:08:16;9.00;99.90
19003;DHT22;9634;51.040;13.794;2022-09-30T21:13:19;8.80;99.90
19003;DHT22;9634;51.040;13.794;2022-09-30T21:23:24;8.60;99.90
19003;DHT22;9634;51.040;13.794;2022-09-30T21:28:28;8.70;99.90
19003;DHT22;9634;51.040;13.794;2022-09-30T21:33:30;8.60;99.90
19003;DHT22;9634;51.040;13.794;2022-09-30T21:38:33;8.50;99.90
19003;DHT22;9634;51.040;13.794;2022-09-30T21:43:37;8.60;99.90
19003;DHT22;9634;51.040;13.794;2022-09-30T21:48:40;8.60;99.90
19003;DHT22;9634;51.040;13.794;2022-09-30T21:53:44;8.60;99.90
19003;DHT22;9634;51.040;13.794;2022-09-30T21:58:48;8.60;99.90
19003;DHT22;9634;51.040;13.794;2022-09-30T22:03:50;8.50;99.90
19003;DHT22;9634;51.040;13.794;2022-09-30T22:08:52;8.30;99.90
19003;DHT22;9634;51.040;13.794;2022-09-30T22:13:56;8.10;99.90
19003;DHT22;9634;51.040;13.794;2022-09-30T22:19:01;8.20;99.90
19003;DHT22;9634;51.040;13.794;2022-09-30T22:24:07;8.20;99.90
19003;DHT22;9634;51.040;13.794;2022-09-30T22:29:11;8.10;99.90
19003;DHT22;9634;51.040;13.794;2022-09-30T22:34:13;8.00;99.90
19003;DHT22;9634;51.040;13.794;2022-09-30T22:39:33;8.20;99.90
19003;DHT22;9634;51.040;13.794;2022-09-30T23:19:57;7.80;99.90
19003;DHT22;9634;51.040;13.794;2022-09-30T23:55:18;7.50;99.90
